sensor_id;sensor_type;location;lat;lon;timestamp;temperature;humidity
23087;DHT22;11712;51.134;4.156;2022-12-18T00:01:35;-2.70;99.90
23087;DHT22;11712;51.134;4.156;2022-12-18T00:04:04;-2.80;99.90
23087;DHT22;11712;51.134;4.156;2022-12-18T00:06:30;-2.90;99.90
23087;DHT22;11712;51.134;4.156;2022-12-18T00:08:57;-2.80;99.90
23087;DHT22;11712;51.134;4.156;2022-12-18T00:11:25;-2.70;99.90
23087;DHT22;11712;51.134;4.156;2022-12-18T00:13:53;-2.70;99.90
23087;DHT22;11712;51.134;4.156;2022-12-18T00:16:21;-2.70;99.90
23087;DHT22;11712;51.134;4.156;2022-12-18T00:18:52;-2.80;99.90
23087;DHT22;11712;51.134;4.156;2022-12-18T00:21:19;-3.00;99.90
23087;DHT22;11712;51.134;4.156;2022-12-18T00:23:46;-3.00;99.90
23087;DHT22;11712;51.134;4.156;2022-12-18T00:26:18;-2.90;99.90
23087;DHT22;11712;51.134;4.156;2022-12-18T00:28:44;-2.90;99.90
23087;DHT22;11712;51.134;4.156;2022-12-18T00:31:13;-2.90;99.90
23087;DHT22;11712;51.134;4.156;2022-12-18T00:33:39;-2.90;99.90
23087;DHT22;11712;51.134;4.156;2022-12-18T00:36:11;-2.90;99.90
23087;DHT22;11712;51.134;4.156;2022-12-18T00:38:37;-2.80;99.90
23087;DHT22;11712;51.134;4.156;2022-12-18T00:41:04;-2.90;99.90
23087;DHT22;11712;51.134;4.156;2022-12-18T00:43:30;-2.90;99.90
23087;DHT22;11712;51.134;4.156;2022-12-18T00:45:55;-2.90;99.90
23087;DHT22;11712;51.134;4.156;2022-12-18T00:48:21;-3.00;99.90
23087;DHT22;11712;51.134;4.156;2022-12-18T00:50:48;-3.00;99.90
23087;DHT22;11712;51.134;4.156;2022-12-18T00:53:13;-3.00;99.90
23087;DHT22;11712;51.134;4.156;2022-12-18T00:55:40;-3.10;99.90
23087;DHT22;11712;51.134;4.156;2022-12-18T00:58:06;-3.10;99.90
23087;DHT22;11712;51.134;4.156;2022-12-18T01:00:32;-3.10;99.90
23087;DHT22;11712;51.134;4.156;2022-12-18T01:02:58;-3.10;99.90
23087;DHT22;11712;51.134;4.156;2022-12-18T01:05:24;-3.10;99.90
23087;DHT22;11712;51.134;4.156;2022-12-18T01:07:49;-3.00;99.90
23087;DHT22;11712;51.134;4.156;2022-12-18T01:10:15;-3.10;99.90
23087;DHT22;11712;51.134;4.156;2022-12-18T01:12:41;-3.20;99.90
23087;DHT22;11712;51.134;4.156;2022-12-18T01:15:07;-3.10;99.90
23087;DHT22;11712;51.134;4.156;2022-12-18T01:17:33;-3.10;99.90
23087;DHT22;11712;51.134;4.156;2022-12-18T01:19:59;-3.10;99.90
23087;DHT22;11712;51.134;4.156;2022-12-18T01:22:25;-3.20;99.90
23087;DHT22;11712;51.134;4.156;2022-12-18T01:24:50;-3.20;99.90
23087;DHT22;11712;51.134;4.156;2022-12-18T01:27:16;-3.20;99.90
23087;DHT22;11712;51.134;4.156;2022-12-18T01:29:41;-3.20;99.90
23087;DHT22;11712;51.134;4.156;2022-12-18T01:32:08;-3.30;99.90
23087;DHT22;11712;51.134;4.156;2022-12-18T01:34:36;-3.40;99.90
23087;DHT22;11712;51.134;4.156;2022-12-18T01:37:03;-3.40;99.90
23087;DHT22;11712;51.134;4.156;2022-12-18T01:39:30;-3.40;99.90
23087;DHT22;11712;51.134;4.156;2022-12-18T01:41:58;-3.40;99.90
23087;DHT22;11712;51.134;4.156;2022-12-18T01:47:44;-3.50;99.90
23087;DHT22;11712;51.134;4.156;2022-12-18T01:52:46;-3.50;99.90
23087;DHT22;11712;51.134;4.156;2022-12-18T01:55:13;-3.70;99.90
23087;DHT22;11712;51.134;4.156;2022-12-18T01:57:41;-3.60;99.90
23087;DHT22;11712;51.134;4.156;2022-12-18T02:00:13;-3.60;99.90
23087;DHT22;11712;51.134;4.156;2022-12-18T02:02:40;-3.50;99.90
23087;DHT22;11712;51.134;4.156;2022-12-18T02:05:07;-3.50;99.90
23087;DHT22;11712;51.134;4.156;2022-12-18T02:13:14;-3.50;99.90
23087;DHT22;11712;51.134;4.156;2022-12-18T02:15:54;-3.50;99.90
23087;DHT22;11712;51.134;4.156;2022-12-18T02:18:28;-3.40;99.90
23087;DHT22;11712;51.134;4.156;2022-12-18T02:26:29;-3.40;99.90
23087;DHT22;11712;51.134;4.156;2022-12-18T02:29:00;-3.60;99.90
23087;DHT22;11712;51.134;4.156;2022-12-18T02:31:31;-3.60;99.90
23087;DHT22;11712;51.134;4.156;2022-12-18T02:34:03;-3.70;99.90
23087;DHT22;11712;51.134;4.156;2022-12-18T02:36:31;-3.80;99.90
23087;DHT22;11712;51.134;4.156;2022-12-18T02:38:59;-3.80;99.90
23087;DHT22;11712;51.134;4.156;2022-12-18T02:41:26;-3.90;99.90
23087;DHT22;11712;51.134;4.156;2022-12-18T02:43:57;-3.90;99.90
23087;DHT22;11712;51.134;4.156;2022-12-18T02:46:36;-4.00;99.90
23087;DHT22;11712;51.134;4.156;2022-12-18T02:54:35;-3.90;99.90
23087;DHT22;11712;51.134;4.156;2022-12-18T02:57:10;-3.90;99.90
23087;DHT22;11712;51.134;4.156;2022-12-18T02:59:49;-4.00;99.90
23087;DHT22;11712;51.134;4.156;2022-12-18T03:02:23;-4.10;99.90
23087;DHT22;11712;51.134;4.156;2022-12-18T03:07:28;-4.10;99.90
23087;DHT22;11712;51.134;4.156;2022-12-18T03:09:59;-4.20;99.90
23087;DHT22;11712;51.134;4.156;2022-12-18T03:12:37;-4.20;99.90
23087;DHT22;11712;51.134;4.156;2022-12-18T03:15:10;-4.30;99.90
23087;DHT22;11712;51.134;4.156;2022-12-18T03:17:41;-4.20;99.90
23087;DHT22;11712;51.134;4.156;2022-12-18T03:20:13;-4.20;99.90
23087;DHT22;11712;51.134;4.156;2022-12-18T03:22:41;-4.10;99.90
23087;DHT22;11712;51.134;4.156;2022-12-18T03:25:10;-4.10;99.90
23087;DHT22;11712;51.134;4.156;2022-12-18T03:27:42;-4.10;99.90
23087;DHT22;11712;51.134;4.156;2022-12-18T03:30:23;-4.10;99.90
23087;DHT22;11712;51.134;4.156;2022-12-18T03:33:25;-4.10;99.90
23087;DHT22;11712;51.134;4.156;2022-12-18T03:35:45;-4.00;99.90
23087;DHT22;11712;51.134;4.156;2022-12-18T03:38:11;-4.00;99.90
23087;DHT22;11712;51.134;4.156;2022-12-18T03:43:42;-4.10;99.90
23087;DHT22;11712;51.134;4.156;2022-12-18T03:46:46;-4.00;99.90
23087;DHT22;11712;51.134;4.156;2022-12-18T03:49:29;-4.00;99.90
23087;DHT22;11712;51.134;4.156;2022-12-18T03:52:04;-4.10;99.90
23087;DHT22;11712;51.134;4.156;2022-12-18T03:54:31;-4.20;99.90
23087;DHT22;11712;51.134;4.156;2022-12-18T03:57:14;-4.30;99.90
23087;DHT22;11712;51.134;4.156;2022-12-18T03:59:41;-4.20;99.90
23087;DHT22;11712;51.134;4.156;2022-12-18T04:02:08;-4.20;99.90
23087;DHT22;11712;51.134;4.156;2022-12-18T04:04:36;-4.20;99.90
23087;DHT22;11712;51.134;4.156;2022-12-18T04:07:03;-4.30;99.90
23087;DHT22;11712;51.134;4.156;2022-12-18T04:09:31;-4.30;99.90
23087;DHT22;11712;51.134;4.156;2022-12-18T04:11:57;-4.20;99.90
23087;DHT22;11712;51.134;4.156;2022-12-18T04:14:23;-4.00;99.90
23087;DHT22;11712;51.134;4.156;2022-12-18T04:16:48;-4.10;99.90
23087;DHT22;11712;51.134;4.156;2022-12-18T04:19:14;-4.00;99.90
23087;DHT22;11712;51.134;4.156;2022-12-18T04:21:39;-4.10;99.90
23087;DHT22;11712;51.134;4.156;2022-12-18T04:24:05;-4.00;99.90
23087;DHT22;11712;51.134;4.156;2022-12-18T04:26:31;-4.00;99.90
23087;DHT22;11712;51.134;4.156;2022-12-18T04:30:18;-4.00;99.90
23087;DHT22;11712;51.134;4.156;2022-12-18T04:32:44;-4.00;99.90
23087;DHT22;11712;51.134;4.156;2022-12-18T04:35:10;-4.00;99.90
23087;DHT22;11712;51.134;4.156;2022-12-18T04:37:37;-4.00;99.90
23087;DHT22;11712;51.134;4.156;2022-12-18T04:40:03;-4.00;99.90
23087;DHT22;11712;51.134;4.156;2022-12-18T04:42:29;-4.00;99.90
23087;DHT22;11712;51.134;4.156;2022-12-18T04:44:55;-4.00;99.90
23087;DHT22;11712;51.134;4.156;2022-12-18T04:47:20;-4.00;99.90
23087;DHT22;11712;51.134;4.156;2022-12-18T04:49:46;-3.90;99.90
23087;DHT22;11712;51.134;4.156;2022-12-18T04:52:12;-3.90;99.90
23087;DHT22;11712;51.134;4.156;2022-12-18T04:54:37;-3.90;99.90
23087;DHT22;11712;51.134;4.156;2022-12-18T04:57:03;-3.90;99.90
23087;DHT22;11712;51.134;4.156;2022-12-18T04:59:29;-3.90;99.90
23087;DHT22;11712;51.134;4.156;2022-12-18T05:01:54;-3.90;99.90
23087;DHT22;11712;51.134;4.156;2022-12-18T05:04:20;-3.90;99.90
23087;DHT22;11712;51.134;4.156;2022-12-18T05:06:46;-3.90;99.90
23087;DHT22;11712;51.134;4.156;2022-12-18T05:09:11;-3.90;99.90
23087;DHT22;11712;51.134;4.156;2022-12-18T05:11:37;-3.90;99.90
23087;DHT22;11712;51.134;4.156;2022-12-18T05:14:03;-4.00;99.90
23087;DHT22;11712;51.134;4.156;2022-12-18T05:16:28;-4.00;99.90
23087;DHT22;11712;51.134;4.156;2022-12-18T05:18:54;-4.10;99.90
23087;DHT22;11712;51.134;4.156;2022-12-18T05:21:20;-4.10;99.90
23087;DHT22;11712;51.134;4.156;2022-12-18T05:23:45;-4.00;99.90
23087;DHT22;11712;51.134;4.156;2022-12-18T05:26:16;-4.00;99.90
23087;DHT22;11712;51.134;4.156;2022-12-18T05:28:42;-4.00;99.90
23087;DHT22;11712;51.134;4.156;2022-12-18T05:31:09;-4.20;99.90
23087;DHT22;11712;51.134;4.156;2022-12-18T05:33:35;-4.10;99.90
23087;DHT22;11712;51.134;4.156;2022-12-18T05:36:02;-4.10;99.90
23087;DHT22;11712;51.134;4.156;2022-12-18T05:38:29;-4.00;99.90
23087;DHT22;11712;51.134;4.156;2022-12-18T05:40:55;-4.00;99.90
23087;DHT22;11712;51.134;4.156;2022-12-18T05:43:22;-3.90;99.90
23087;DHT22;11712;51.134;4.156;2022-12-18T05:45:49;-3.90;99.90
23087;DHT22;11712;51.134;4.156;2022-12-18T05:48:15;-3.90;99.90
23087;DHT22;11712;51.134;4.156;2022-12-18T05:50:42;-3.80;99.90
23087;DHT22;11712;51.134;4.156;2022-12-18T05:53:11;-3.80;99.90
23087;DHT22;11712;51.134;4.156;2022-12-18T05:55:39;-3.70;99.90
23087;DHT22;11712;51.134;4.156;2022-12-18T05:58:07;-3.70;99.90
23087;DHT22;11712;51.134;4.156;2022-12-18T06:00:36;-3.60;99.90
23087;DHT22;11712;51.134;4.156;2022-12-18T06:03:06;-3.60;99.90
23087;DHT22;11712;51.134;4.156;2022-12-18T06:05:35;-3.60;99.90
23087;DHT22;11712;51.134;4.156;2022-12-18T06:08:02;-3.70;99.90
23087;DHT22;11712;51.134;4.156;2022-12-18T06:10:28;-3.70;99.90
23087;DHT22;11712;51.134;4.156;2022-12-18T06:12:54;-3.70;99.90
23087;DHT22;11712;51.134;4.156;2022-12-18T06:15:19;-3.80;99.90
23087;DHT22;11712;51.134;4.156;2022-12-18T06:17:45;-3.70;99.90
23087;DHT22;11712;51.134;4.156;2022-12-18T06:20:11;-3.70;99.90
23087;DHT22;11712;51.134;4.156;2022-12-18T06:22:36;-3.80;99.90
23087;DHT22;11712;51.134;4.156;2022-12-18T06:25:02;-3.80;99.90
23087;DHT22;11712;51.134;4.156;2022-12-18T06:27:28;-3.80;99.90
23087;DHT22;11712;51.134;4.156;2022-12-18T06:29:53;-3.80;99.90
23087;DHT22;11712;51.134;4.156;2022-12-18T06:32:19;-3.70;99.90
23087;DHT22;11712;51.134;4.156;2022-12-18T06:34:45;-3.70;99.90
23087;DHT22;11712;51.134;4.156;2022-12-18T06:37:10;-3.60;99.90
23087;DHT22;11712;51.134;4.156;2022-12-18T06:39:36;-3.80;99.90
23087;DHT22;11712;51.134;4.156;2022-12-18T06:42:03;-3.70;99.90
23087;DHT22;11712;51.134;4.156;2022-12-18T06:44:28;-3.70;99.90
23087;DHT22;11712;51.134;4.156;2022-12-18T06:46:55;-3.80;99.90
23087;DHT22;11712;51.134;4.156;2022-12-18T06:49:20;-4.00;99.90
23087;DHT22;11712;51.134;4.156;2022-12-18T06:51:46;-4.00;99.90
23087;DHT22;11712;51.134;4.156;2022-12-18T06:54:12;-4.00;99.90
23087;DHT22;11712;51.134;4.156;2022-12-18T06:56:38;-4.10;99.90
23087;DHT22;11712;51.134;4.156;2022-12-18T06:59:04;-4.20;99.90
23087;DHT22;11712;51.134;4.156;2022-12-18T07:01:29;-4.30;99.90
23087;DHT22;11712;51.134;4.156;2022-12-18T07:03:56;-4.30;99.90
23087;DHT22;11712;51.134;4.156;2022-12-18T07:06:24;-4.30;99.90
23087;DHT22;11712;51.134;4.156;2022-12-18T07:08:50;-4.20;99.90
23087;DHT22;11712;51.134;4.156;2022-12-18T07:11:17;-4.20;99.90
23087;DHT22;11712;51.134;4.156;2022-12-18T07:13:43;-4.20;99.90
23087;DHT22;11712;51.134;4.156;2022-12-18T07:16:15;-4.20;99.90
23087;DHT22;11712;51.134;4.156;2022-12-18T07:18:41;-4.20;99.90
23087;DHT22;11712;51.134;4.156;2022-12-18T07:21:08;-4.10;99.90
23087;DHT22;11712;51.134;4.156;2022-12-18T07:23:35;-4.00;99.90
23087;DHT22;11712;51.134;4.156;2022-12-18T07:26:05;-3.90;99.90
23087;DHT22;11712;51.134;4.156;2022-12-18T07:28:32;-3.80;99.90
23087;DHT22;11712;51.134;4.156;2022-12-18T07:31:03;-3.90;99.90
23087;DHT22;11712;51.134;4.156;2022-12-18T07:33:29;-3.90;99.90
23087;DHT22;11712;51.134;4.156;2022-12-18T07:35:54;-4.00;99.90
23087;DHT22;11712;51.134;4.156;2022-12-18T07:38:21;-4.10;99.90
23087;DHT22;11712;51.134;4.156;2022-12-18T07:40:46;-4.00;99.90
23087;DHT22;11712;51.134;4.156;2022-12-18T07:43:12;-4.00;99.90
23087;DHT22;11712;51.134;4.156;2022-12-18T07:45:37;-4.10;99.90
23087;DHT22;11712;51.134;4.156;2022-12-18T07:48:04;-4.20;99.90
23087;DHT22;11712;51.134;4.156;2022-12-18T07:50:29;-4.10;99.90
23087;DHT22;11712;51.134;4.156;2022-12-18T07:52:55;-4.20;99.90
23087;DHT22;11712;51.134;4.156;2022-12-18T07:55:21;-4.10;99.90
23087;DHT22;11712;51.134;4.156;2022-12-18T07:57:46;-4.10;99.90
23087;DHT22;11712;51.134;4.156;2022-12-18T08:00:12;-4.00;99.90
23087;DHT22;11712;51.134;4.156;2022-12-18T08:02:38;-4.00;99.90
23087;DHT22;11712;51.134;4.156;2022-12-18T08:05:04;-4.00;99.90
23087;DHT22;11712;51.134;4.156;2022-12-18T08:07:30;-4.00;99.90
23087;DHT22;11712;51.134;4.156;2022-12-18T08:09:55;-4.00;99.90
23087;DHT22;11712;51.134;4.156;2022-12-18T08:12:21;-3.90;99.90
23087;DHT22;11712;51.134;4.156;2022-12-18T08:14:47;-3.80;99.90
23087;DHT22;11712;51.134;4.156;2022-12-18T08:17:12;-3.70;99.90
23087;DHT22;11712;51.134;4.156;2022-12-18T08:19:38;-3.60;99.90
23087;DHT22;11712;51.134;4.156;2022-12-18T08:22:03;-3.60;99.90
23087;DHT22;11712;51.134;4.156;2022-12-18T08:24:29;-3.70;99.90
23087;DHT22;11712;51.134;4.156;2022-12-18T08:26:55;-3.70;99.90
23087;DHT22;11712;51.134;4.156;2022-12-18T08:29:22;-3.70;99.90
23087;DHT22;11712;51.134;4.156;2022-12-18T08:31:48;-3.60;99.90
23087;DHT22;11712;51.134;4.156;2022-12-18T08:34:14;-3.40;99.90
23087;DHT22;11712;51.134;4.156;2022-12-18T08:36:40;-3.40;99.90
23087;DHT22;11712;51.134;4.156;2022-12-18T08:39:06;-3.30;99.90
23087;DHT22;11712;51.134;4.156;2022-12-18T08:41:31;-3.30;99.90
23087;DHT22;11712;51.134;4.156;2022-12-18T08:43:57;-3.20;99.90
23087;DHT22;11712;51.134;4.156;2022-12-18T08:46:42;-3.20;99.90
23087;DHT22;11712;51.134;4.156;2022-12-18T08:49:09;-3.10;99.90
23087;DHT22;11712;51.134;4.156;2022-12-18T08:51:35;-3.00;99.90
23087;DHT22;11712;51.134;4.156;2022-12-18T08:54:02;-2.90;99.90
23087;DHT22;11712;51.134;4.156;2022-12-18T08:56:28;-2.90;99.90
23087;DHT22;11712;51.134;4.156;2022-12-18T08:58:56;-3.00;99.90
23087;DHT22;11712;51.134;4.156;2022-12-18T09:01:22;-2.80;99.90
23087;DHT22;11712;51.134;4.156;2022-12-18T09:03:48;-2.80;99.90
23087;DHT22;11712;51.134;4.156;2022-12-18T09:06:16;-2.80;99.90
23087;DHT22;11712;51.134;4.156;2022-12-18T09:08:43;-2.80;99.90
23087;DHT22;11712;51.134;4.156;2022-12-18T09:11:14;-2.80;99.90
23087;DHT22;11712;51.134;4.156;2022-12-18T09:13:40;-2.70;99.90
23087;DHT22;11712;51.134;4.156;2022-12-18T09:16:06;-2.60;99.90
23087;DHT22;11712;51.134;4.156;2022-12-18T09:18:32;-2.50;99.90
23087;DHT22;11712;51.134;4.156;2022-12-18T09:20:57;-2.60;99.90
23087;DHT22;11712;51.134;4.156;2022-12-18T09:23:23;-2.50;99.90
23087;DHT22;11712;51.134;4.156;2022-12-18T09:25:49;-2.50;99.90
23087;DHT22;11712;51.134;4.156;2022-12-18T09:28:16;-2.40;99.90
23087;DHT22;11712;51.134;4.156;2022-12-18T09:30:45;-2.30;99.90
23087;DHT22;11712;51.134;4.156;2022-12-18T09:33:11;-2.30;99.90
23087;DHT22;11712;51.134;4.156;2022-12-18T09:35:40;-2.30;99.90
23087;DHT22;11712;51.134;4.156;2022-12-18T09:38:07;-2.40;99.90
23087;DHT22;11712;51.134;4.156;2022-12-18T09:40:36;-2.40;99.90
23087;DHT22;11712;51.134;4.156;2022-12-18T09:43:05;-2.40;99.90
23087;DHT22;11712;51.134;4.156;2022-12-18T09:45:45;-2.40;99.90
23087;DHT22;11712;51.134;4.156;2022-12-18T09:48:18;-2.20;99.90
23087;DHT22;11712;51.134;4.156;2022-12-18T09:50:45;-2.30;99.90
23087;DHT22;11712;51.134;4.156;2022-12-18T09:53:19;-2.10;99.90
23087;DHT22;11712;51.134;4.156;2022-12-18T09:55:46;-2.10;99.90
23087;DHT22;11712;51.134;4.156;2022-12-18T10:00:42;-2.00;99.90
23087;DHT22;11712;51.134;4.156;2022-12-18T10:03:13;-2.00;99.90
23087;DHT22;11712;51.134;4.156;2022-12-18T10:10:56;-1.90;99.90
23087;DHT22;11712;51.134;4.156;2022-12-18T10:13:53;-1.90;99.90
23087;DHT22;11712;51.134;4.156;2022-12-18T10:25:50;-1.80;99.90
23087;DHT22;11712;51.134;4.156;2022-12-18T10:27:56;-1.70;99.90
23087;DHT22;11712;51.134;4.156;2022-12-18T10:30:23;-1.70;99.90
23087;DHT22;11712;51.134;4.156;2022-12-18T10:32:50;-1.70;99.90
23087;DHT22;11712;51.134;4.156;2022-12-18T10:35:24;-1.50;99.90
23087;DHT22;11712;51.134;4.156;2022-12-18T10:38:24;-1.40;99.90
23087;DHT22;11712;51.134;4.156;2022-12-18T10:40:54;-1.20;99.90
23087;DHT22;11712;51.134;4.156;2022-12-18T10:43:24;-1.20;99.90
23087;DHT22;11712;51.134;4.156;2022-12-18T10:48:34;-1.10;99.90
23087;DHT22;11712;51.134;4.156;2022-12-18T10:51:01;-1.00;99.90
23087;DHT22;11712;51.134;4.156;2022-12-18T10:53:30;-1.00;99.90
23087;DHT22;11712;51.134;4.156;2022-12-18T10:56:02;-0.90;99.90
23087;DHT22;11712;51.134;4.156;2022-12-18T10:58:35;-0.80;99.90
23087;DHT22;11712;51.134;4.156;2022-12-18T11:01:17;-0.60;99.90
23087;DHT22;11712;51.134;4.156;2022-12-18T11:04:00;-0.50;99.90
23087;DHT22;11712;51.134;4.156;2022-12-18T11:06:26;-0.50;99.90
23087;DHT22;11712;51.134;4.156;2022-12-18T11:09:08;-0.40;99.90
23087;DHT22;11712;51.134;4.156;2022-12-18T11:11:52;-0.40;99.90
23087;DHT22;11712;51.134;4.156;2022-12-18T11:17:19;-0.40;99.90
23087;DHT22;11712;51.134;4.156;2022-12-18T11:19:45;-0.30;99.90
23087;DHT22;11712;51.134;4.156;2022-12-18T11:27:38;-0.20;99.90
23087;DHT22;11712;51.134;4.156;2022-12-18T11:30:34;-0.10;99.90
23087;DHT22;11712;51.134;4.156;2022-12-18T11:33:16;0.00;99.90
23087;DHT22;11712;51.134;4.156;2022-12-18T11:35:51;-0.10;99.90
23087;DHT22;11712;51.134;4.156;2022-12-18T11:38:24;-0.20;99.90
23087;DHT22;11712;51.134;4.156;2022-12-18T11:40:59;-0.20;99.90
23087;DHT22;11712;51.134;4.156;2022-12-18T11:43:33;-0.10;99.90
23087;DHT22;11712;51.134;4.156;2022-12-18T11:46:05;-0.10;99.90
23087;DHT22;11712;51.134;4.156;2022-12-18T11:48:42;-0.10;99.90
23087;DHT22;11712;51.134;4.156;2022-12-18T11:51:19;0.00;99.90
23087;DHT22;11712;51.134;4.156;2022-12-18T11:53:47;0.10;99.90
23087;DHT22;11712;51.134;4.156;2022-12-18T11:58:51;0.30;99.90
23087;DHT22;11712;51.134;4.156;2022-12-18T12:01:38;0.30;99.90
23087;DHT22;11712;51.134;4.156;2022-12-18T12:07:38;0.10;99.90
23087;DHT22;11712;51.134;4.156;2022-12-18T12:10:12;0.30;99.90
23087;DHT22;11712;51.134;4.156;2022-12-18T12:17:50;0.60;99.90
23087;DHT22;11712;51.134;4.156;2022-12-18T12:20:24;0.70;99.90
23087;DHT22;11712;51.134;4.156;2022-12-18T12:23:03;0.70;99.90
23087;DHT22;11712;51.134;4.156;2022-12-18T12:25:46;0.70;99.90
23087;DHT22;11712;51.134;4.156;2022-12-18T12:33:56;0.40;99.90
23087;DHT22;11712;51.134;4.156;2022-12-18T12:39:16;0.20;99.90
23087;DHT22;11712;51.134;4.156;2022-12-18T12:41:45;0.20;99.90
23087;DHT22;11712;51.134;4.156;2022-12-18T12:44:34;0.20;99.90
23087;DHT22;11712;51.134;4.156;2022-12-18T12:47:10;0.30;99.90
23087;DHT22;11712;51.134;4.156;2022-12-18T12:49:38;0.30;99.90
23087;DHT22;11712;51.134;4.156;2022-12-18T12:52:12;0.40;99.90
23087;DHT22;11712;51.134;4.156;2022-12-18T12:54:39;0.50;99.90
23087;DHT22;11712;51.134;4.156;2022-12-18T12:57:33;0.70;99.90
23087;DHT22;11712;51.134;4.156;2022-12-18T13:00:17;0.80;99.90
23087;DHT22;11712;51.134;4.156;2022-12-18T13:05:49;1.00;99.90
23087;DHT22;11712;51.134;4.156;2022-12-18T13:08:28;1.10;99.90
23087;DHT22;11712;51.134;4.156;2022-12-18T13:10:55;1.30;99.90
23087;DHT22;11712;51.134;4.156;2022-12-18T13:13:55;1.30;99.90
23087;DHT22;11712;51.134;4.156;2022-12-18T13:16:25;1.20;99.90
23087;DHT22;11712;51.134;4.156;2022-12-18T13:18:54;1.20;99.90
23087;DHT22;11712;51.134;4.156;2022-12-18T13:21:33;1.10;99.90
23087;DHT22;11712;51.134;4.156;2022-12-18T13:24:22;1.20;99.90
23087;DHT22;11712;51.134;4.156;2022-12-18T13:26:48;1.10;99.90
23087;DHT22;11712;51.134;4.156;2022-12-18T13:32:22;1.20;99.90
23087;DHT22;11712;51.134;4.156;2022-12-18T13:34:48;1.20;99.90
23087;DHT22;11712;51.134;4.156;2022-12-18T13:37:43;1.30;99.90
23087;DHT22;11712;51.134;4.156;2022-12-18T13:46:16;1.50;99.90
23087;DHT22;11712;51.134;4.156;2022-12-18T13:48:34;1.40;99.90
23087;DHT22;11712;51.134;4.156;2022-12-18T13:51:05;1.50;99.90
23087;DHT22;11712;51.134;4.156;2022-12-18T13:54:13;1.40;99.90
23087;DHT22;11712;51.134;4.156;2022-12-18T13:56:29;1.30;99.90
23087;DHT22;11712;51.134;4.156;2022-12-18T13:59:19;1.20;99.90
23087;DHT22;11712;51.134;4.156;2022-12-18T14:01:53;1.20;99.90
23087;DHT22;11712;51.134;4.156;2022-12-18T14:04:28;1.30;99.90
23087;DHT22;11712;51.134;4.156;2022-12-18T14:07:18;1.30;99.90
23087;DHT22;11712;51.134;4.156;2022-12-18T14:09:50;1.50;99.90
23087;DHT22;11712;51.134;4.156;2022-12-18T14:12:21;1.60;99.90
23087;DHT22;11712;51.134;4.156;2022-12-18T14:15:19;1.60;99.90
23087;DHT22;11712;51.134;4.156;2022-12-18T14:17:47;1.50;99.90
23087;DHT22;11712;51.134;4.156;2022-12-18T14:20:14;1.60;99.90
23087;DHT22;11712;51.134;4.156;2022-12-18T14:22:44;1.60;99.90
23087;DHT22;11712;51.134;4.156;2022-12-18T14:28:32;1.60;99.90
23087;DHT22;11712;51.134;4.156;2022-12-18T14:30:39;1.60;99.90
23087;DHT22;11712;51.134;4.156;2022-12-18T14:35:42;1.60;99.90
23087;DHT22;11712;51.134;4.156;2022-12-18T14:41:01;1.70;99.90
23087;DHT22;11712;51.134;4.156;2022-12-18T14:43:29;1.60;99.90
23087;DHT22;11712;51.134;4.156;2022-12-18T14:45:57;1.60;99.90
23087;DHT22;11712;51.134;4.156;2022-12-18T14:51:02;1.60;99.90
23087;DHT22;11712;51.134;4.156;2022-12-18T14:53:47;1.60;99.90
23087;DHT22;11712;51.134;4.156;2022-12-18T14:56:30;1.40;99.90
23087;DHT22;11712;51.134;4.156;2022-12-18T14:58:57;1.40;99.90
23087;DHT22;11712;51.134;4.156;2022-12-18T15:01:34;1.30;99.90
23087;DHT22;11712;51.134;4.156;2022-12-18T15:04:02;1.20;99.90
23087;DHT22;11712;51.134;4.156;2022-12-18T15:06:33;1.20;99.90
23087;DHT22;11712;51.134;4.156;2022-12-18T15:09:02;1.20;99.90
23087;DHT22;11712;51.134;4.156;2022-12-18T15:11:45;1.30;99.90
23087;DHT22;11712;51.134;4.156;2022-12-18T15:14:34;1.40;99.90
23087;DHT22;11712;51.134;4.156;2022-12-18T15:17:03;1.40;99.90
23087;DHT22;11712;51.134;4.156;2022-12-18T15:19:40;1.50;99.90
23087;DHT22;11712;51.134;4.156;2022-12-18T15:22:28;1.60;99.90
23087;DHT22;11712;51.134;4.156;2022-12-18T15:24:56;1.60;99.90
23087;DHT22;11712;51.134;4.156;2022-12-18T15:29:33;1.50;99.90
23087;DHT22;11712;51.134;4.156;2022-12-18T15:32:18;1.40;99.90
23087;DHT22;11712;51.134;4.156;2022-12-18T15:34:44;1.50;99.90
23087;DHT22;11712;51.134;4.156;2022-12-18T15:37:10;1.50;99.90
23087;DHT22;11712;51.134;4.156;2022-12-18T15:39:35;1.60;99.90
23087;DHT22;11712;51.134;4.156;2022-12-18T15:42:01;1.60;99.90
23087;DHT22;11712;51.134;4.156;2022-12-18T15:44:46;1.60;99.90
23087;DHT22;11712;51.134;4.156;2022-12-18T15:47:12;1.60;99.90
23087;DHT22;11712;51.134;4.156;2022-12-18T15:49:38;1.60;99.90
23087;DHT22;11712;51.134;4.156;2022-12-18T15:52:05;1.60;99.90
23087;DHT22;11712;51.134;4.156;2022-12-18T15:54:31;1.60;99.90
23087;DHT22;11712;51.134;4.156;2022-12-18T15:57:15;1.70;99.90
23087;DHT22;11712;51.134;4.156;2022-12-18T15:59:54;1.60;99.90
23087;DHT22;11712;51.134;4.156;2022-12-18T16:02:22;1.60;99.90
23087;DHT22;11712;51.134;4.156;2022-12-18T16:04:49;1.60;99.90
23087;DHT22;11712;51.134;4.156;2022-12-18T16:07:15;1.60;99.90
23087;DHT22;11712;51.134;4.156;2022-12-18T16:09:41;1.80;99.90
23087;DHT22;11712;51.134;4.156;2022-12-18T16:12:20;1.70;99.90
23087;DHT22;11712;51.134;4.156;2022-12-18T16:14:47;1.70;99.90
23087;DHT22;11712;51.134;4.156;2022-12-18T16:17:14;1.80;99.90
23087;DHT22;11712;51.134;4.156;2022-12-18T16:19:40;1.80;99.90
23087;DHT22;11712;51.134;4.156;2022-12-18T16:22:21;1.80;99.90
23087;DHT22;11712;51.134;4.156;2022-12-18T16:24:48;1.80;99.90
23087;DHT22;11712;51.134;4.156;2022-12-18T16:27:14;1.80;99.90
23087;DHT22;11712;51.134;4.156;2022-12-18T16:29:40;1.80;99.90
23087;DHT22;11712;51.134;4.156;2022-12-18T16:32:06;1.90;99.90
23087;DHT22;11712;51.134;4.156;2022-12-18T16:34:33;2.00;99.90
23087;DHT22;11712;51.134;4.156;2022-12-18T16:37:04;2.00;99.90
23087;DHT22;11712;51.134;4.156;2022-12-18T16:39:30;2.10;99.90
23087;DHT22;11712;51.134;4.156;2022-12-18T16:41:57;2.10;99.90
23087;DHT22;11712;51.134;4.156;2022-12-18T16:44:22;2.20;99.90
23087;DHT22;11712;51.134;4.156;2022-12-18T16:46:48;2.00;99.90
23087;DHT22;11712;51.134;4.156;2022-12-18T16:49:15;1.90;99.90
23087;DHT22;11712;51.134;4.156;2022-12-18T16:51:41;1.80;99.90
23087;DHT22;11712;51.134;4.156;2022-12-18T16:54:07;1.80;99.90
23087;DHT22;11712;51.134;4.156;2022-12-18T16:56:33;1.80;99.90
23087;DHT22;11712;51.134;4.156;2022-12-18T16:59:00;1.80;99.90
23087;DHT22;11712;51.134;4.156;2022-12-18T17:01:28;1.70;99.90
23087;DHT22;11712;51.134;4.156;2022-12-18T17:04:02;1.80;99.90
23087;DHT22;11712;51.134;4.156;2022-12-18T17:06:29;1.80;99.90
23087;DHT22;11712;51.134;4.156;2022-12-18T17:08:57;1.90;99.90
23087;DHT22;11712;51.134;4.156;2022-12-18T17:11:24;1.80;99.90
23087;DHT22;11712;51.134;4.156;2022-12-18T17:13:50;1.90;99.90
23087;DHT22;11712;51.134;4.156;2022-12-18T17:16:16;2.00;99.90
23087;DHT22;11712;51.134;4.156;2022-12-18T17:18:42;2.00;99.90
23087;DHT22;11712;51.134;4.156;2022-12-18T17:21:09;2.00;99.90
23087;DHT22;11712;51.134;4.156;2022-12-18T17:23:35;2.10;99.90
23087;DHT22;11712;51.134;4.156;2022-12-18T17:26:02;2.00;99.90
23087;DHT22;11712;51.134;4.156;2022-12-18T17:28:29;2.00;99.90
23087;DHT22;11712;51.134;4.156;2022-12-18T17:30:56;1.90;99.90
23087;DHT22;11712;51.134;4.156;2022-12-18T17:33:22;1.90;99.90